Time;durP1;ratioP1;P1;durP2;ratioP2;P2;SDS_P1;SDS_P2;PMS_P1;PMS_P2;Temp;Humidity;BMP_temperature;BMP_pressure;BME280_temperature;BME280_humidity;BME280_pressure;Samples;Min_cycle;Max_cycle;Signal;HPM_P1;HPM_P2
2023/11/18 00:00:18;;;;;;;6.75;2.72;;;;;;;;;;5022314;28;20030;-77
2023/11/18 00:02:43;;;;;;;4.78;2.60;;;;;;;;;;5026422;28;20029;-76
2023/11/18 00:05:09;;;;;;;5.07;2.38;;;;;;;;;;5029265;28;20064;-77
2023/11/18 00:07:34;;;;;;;4.30;2.38;;;;;;;;;;5028306;28;20039;-77
2023/11/18 00:09:59;;;;;;;5.43;3.00;;;;;;;;;;5038987;28;20030;-77
2023/11/18 00:12:25;;;;;;;4.10;2.35;;;;;;;;;;5025570;28;20045;-77
2023/11/18 00:14:50;;;;;;;5.57;2.97;;;;;;;;;;5024333;28;20029;-77
2023/11/18 00:17:15;;;;;;;6.25;2.50;;;;;;;;;;5020520;28;20042;-77
2023/11/18 00:19:42;;;;;;;4.55;2.70;;;;;;;;;;5030399;28;20490;-77
2023/11/18 00:22:07;;;;;;;5.22;2.67;;;;;;;;;;5035411;28;20084;-76
2023/11/18 00:24:34;;;;;;;6.65;2.88;;;;;;;;;;5025857;28;20410;-77
2023/11/18 00:26:59;;;;;;;5.28;2.72;;;;;;;;;;5024846;28;20029;-76
2023/11/18 00:29:25;;;;;;;4.68;2.83;;;;;;;;;;5028603;28;20038;-77
2023/11/18 00:31:50;;;;;;;5.07;2.85;;;;;;;;;;5027162;28;20132;-77
2023/11/18 00:34:15;;;;;;;5.07;2.88;;;;;;;;;;5025039;28;20034;-77
2023/11/18 00:36:41;;;;;;;5.15;3.00;;;;;;;;;;5027871;28;20501;-77
2023/11/18 00:39:06;;;;;;;5.32;2.97;;;;;;;;;;5028384;28;20371;-77
2023/11/18 00:41:31;;;;;;;6.20;3.50;;;;;;;;;;5035247;28;20033;-76
2023/11/18 00:43:56;;;;;;;5.68;3.17;;;;;;;;;;5021770;28;20029;-77
2023/11/18 00:46:22;;;;;;;7.05;3.60;;;;;;;;;;5034043;28;20512;-76
2023/11/18 00:48:47;;;;;;;7.10;3.53;;;;;;;;;;5033002;28;20632;-77
2023/11/18 00:51:12;;;;;;;6.00;3.33;;;;;;;;;;5030738;28;20136;-77
2023/11/18 00:53:38;;;;;;;7.60;3.33;;;;;;;;;;5029641;28;20044;-76
2023/11/18 00:56:07;;;;;;;5.85;3.13;;;;;;;;;;5026268;28;20409;-77
2023/11/18 00:58:35;;;;;;;8.88;3.75;;;;;;;;;;5038737;28;20033;-77
2023/11/18 01:01:00;;;;;;;7.93;3.28;;;;;;;;;;5033066;28;20095;-77
2023/11/18 01:03:25;;;;;;;6.60;3.17;;;;;;;;;;5038014;28;20494;-77
2023/11/18 01:05:51;;;;;;;8.25;3.90;;;;;;;;;;5032980;28;20030;-77
2023/11/18 01:08:17;;;;;;;5.82;3.75;;;;;;;;;;5028711;28;20057;-77
2023/11/18 01:10:42;;;;;;;5.65;3.13;;;;;;;;;;5032695;28;20076;-77
2023/11/18 01:13:09;;;;;;;6.30;3.70;;;;;;;;;;5029438;28;20036;-77
2023/11/18 01:15:34;;;;;;;6.43;3.65;;;;;;;;;;5032655;28;20486;-76
2023/11/18 01:17:59;;;;;;;5.55;3.28;;;;;;;;;;5031747;28;20017;-77
2023/11/18 01:20:24;;;;;;;7.20;3.47;;;;;;;;;;5029439;28;20065;-76
2023/11/18 01:22:49;;;;;;;6.32;4.20;;;;;;;;;;5032422;28;20032;-77
2023/11/18 01:25:18;;;;;;;7.10;4.18;;;;;;;;;;5029303;28;20038;-77
2023/11/18 01:27:47;;;;;;;8.38;4.15;;;;;;;;;;5029288;28;20025;-77
2023/11/18 01:30:12;;;;;;;8.95;4.85;;;;;;;;;;5031270;28;20480;-77
2023/11/18 01:32:39;;;;;;;7.20;4.32;;;;;;;;;;5029376;28;20037;-77
2023/11/18 01:35:05;;;;;;;7.10;4.32;;;;;;;;;;5024123;28;20553;-77
2023/11/18 01:37:31;;;;;;;8.73;3.75;;;;;;;;;;5029722;28;20045;-77
2023/11/18 01:39:57;;;;;;;7.22;4.00;;;;;;;;;;5047806;28;20044;-76
2023/11/18 01:42:22;;;;;;;7.03;4.15;;;;;;;;;;5031876;28;20041;-76
2023/11/18 01:44:48;;;;;;;6.70;4.20;;;;;;;;;;5029809;28;20037;-76
2023/11/18 01:47:13;;;;;;;8.20;4.25;;;;;;;;;;5030000;28;20045;-76
2023/11/18 01:49:40;;;;;;;5.95;3.65;;;;;;;;;;5031858;28;20057;-77
2023/11/18 01:52:09;;;;;;;6.35;3.65;;;;;;;;;;5029635;28;20099;-77
2023/11/18 01:54:37;;;;;;;7.07;4.20;;;;;;;;;;5028579;28;20030;-77
2023/11/18 01:57:05;;;;;;;7.95;4.38;;;;;;;;;;5031407;28;20121;-76
2023/11/18 01:59:33;;;;;;;6.72;3.72;;;;;;;;;;5030884;28;20036;-76
2023/11/18 02:01:59;;;;;;;5.72;3.67;;;;;;;;;;5027817;28;20087;-77
2023/11/18 02:04:25;;;;;;;6.40;3.92;;;;;;;;;;5030203;28;20037;-77
2023/11/18 02:06:50;;;;;;;7.25;4.40;;;;;;;;;;5021436;28;20038;-77
2023/11/18 02:09:23;;;;;;;6.38;4.10;;;;;;;;;;5022902;28;20065;-77
2023/11/18 02:11:54;;;;;;;7.82;4.55;;;;;;;;;;5031372;28;20498;-76
2023/11/18 02:14:20;;;;;;;7.55;4.20;;;;;;;;;;5029962;28;20039;-76
2023/11/18 02:16:48;;;;;;;5.43;3.53;;;;;;;;;;5030837;28;20124;-76
2023/11/18 02:19:21;;;;;;;7.55;4.32;;;;;;;;;;5035567;28;20038;-75
2023/11/18 02:21:47;;;;;;;8.23;3.95;;;;;;;;;;5027341;28;20029;-77
2023/11/18 02:24:30;;;;;;;6.22;3.42;;;;;;;;;;5030517;28;20112;-76
2023/11/18 02:26:57;;;;;;;6.68;3.95;;;;;;;;;;5037103;28;20037;-77
2023/11/18 02:29:23;;;;;;;6.53;3.70;;;;;;;;;;5028810;28;20030;-77
2023/11/18 02:31:51;;;;;;;7.43;3.45;;;;;;;;;;5030856;28;20033;-77
2023/11/18 02:34:20;;;;;;;6.70;3.65;;;;;;;;;;5029779;28;20033;-76
2023/11/18 02:36:47;;;;;;;5.82;3.67;;;;;;;;;;5039366;28;20034;-76
2023/11/18 02:39:21;;;;;;;7.50;3.97;;;;;;;;;;5036940;28;20040;-77
2023/11/18 02:41:47;;;;;;;5.65;3.63;;;;;;;;;;5029652;28;20068;-76
2023/11/18 02:44:17;;;;;;;6.82;3.47;;;;;;;;;;5028530;28;20555;-76
2023/11/18 02:46:43;;;;;;;5.00;3.20;;;;;;;;;;5030223;28;20524;-76
2023/11/18 02:49:09;;;;;;;6.30;3.58;;;;;;;;;;5027691;28;20042;-76
2023/11/18 02:51:39;;;;;;;5.60;3.15;;;;;;;;;;5030107;28;20056;-77
2023/11/18 02:54:06;;;;;;;6.50;4.07;;;;;;;;;;5030293;28;20029;-76
2023/11/18 02:56:31;;;;;;;7.65;3.38;;;;;;;;;;5028829;28;20040;-79
2023/11/18 02:58:57;;;;;;;7.63;3.55;;;;;;;;;;5030845;28;20410;-77
2023/11/18 03:01:25;;;;;;;7.47;4.15;;;;;;;;;;5031086;28;20041;-77
2023/11/18 03:03:50;;;;;;;5.80;3.42;;;;;;;;;;5030514;28;20040;-77
2023/11/18 03:06:15;;;;;;;5.72;3.30;;;;;;;;;;5028172;28;20104;-77
2023/11/18 03:08:41;;;;;;;6.13;3.42;;;;;;;;;;5030278;28;20500;-77
2023/11/18 03:11:08;;;;;;;5.15;3.33;;;;;;;;;;5028473;28;20037;-77
2023/11/18 03:13:34;;;;;;;6.88;3.63;;;;;;;;;;5030211;28;20065;-77
2023/11/18 03:15:59;;;;;;;6.32;3.90;;;;;;;;;;5026757;28;20065;-77
2023/11/18 03:18:25;;;;;;;5.90;3.35;;;;;;;;;;5026264;28;20034;-77
2023/11/18 03:20:51;;;;;;;6.50;3.65;;;;;;;;;;5031351;28;20032;-77
2023/11/18 03:23:16;;;;;;;7.30;3.60;;;;;;;;;;5028409;28;20378;-77
2023/11/18 03:25:41;;;;;;;6.32;3.97;;;;;;;;;;5030277;28;20030;-78
2023/11/18 03:28:07;;;;;;;6.88;3.90;;;;;;;;;;5028575;28;20026;-77
2023/11/18 03:30:32;;;;;;;7.78;4.20;;;;;;;;;;5024068;28;20029;-77
2023/11/18 03:32:57;;;;;;;6.80;3.75;;;;;;;;;;5023210;28;20032;-77
2023/11/18 03:35:23;;;;;;;6.65;3.50;;;;;;;;;;5028277;28;20398;-77
2023/11/18 03:37:49;;;;;;;8.27;4.60;;;;;;;;;;5028731;28;20037;-77
2023/11/18 03:40:14;;;;;;;7.55;4.00;;;;;;;;;;5025560;28;20536;-77
2023/11/18 03:42:41;;;;;;;10.63;4.03;;;;;;;;;;5031054;28;20401;-78
2023/11/18 03:45:07;;;;;;;6.78;3.78;;;;;;;;;;5026698;28;20034;-77
2023/11/18 03:47:33;;;;;;;9.48;4.57;;;;;;;;;;5028902;28;20052;-77
2023/11/18 03:49:59;;;;;;;7.78;3.70;;;;;;;;;;5029075;28;20129;-77
2023/11/18 03:52:24;;;;;;;6.50;4.00;;;;;;;;;;5026607;28;20510;-77
2023/11/18 03:54:49;;;;;;;7.47;4.30;;;;;;;;;;5025907;28;20120;-77
2023/11/18 03:57:15;;;;;;;6.80;4.05;;;;;;;;;;5026724;28;20044;-77
2023/11/18 03:59:41;;;;;;;6.40;3.33;;;;;;;;;;5030659;28;20448;-77
2023/11/18 04:02:06;;;;;;;5.75;3.25;;;;;;;;;;5039265;28;20045;-77
2023/11/18 04:04:31;;;;;;;8.30;4.20;;;;;;;;;;5035207;28;20498;-77
2023/11/18 04:06:57;;;;;;;7.18;3.65;;;;;;;;;;5022606;28;20029;-77
2023/11/18 04:09:22;;;;;;;8.88;3.67;;;;;;;;;;5023861;28;20034;-77
2023/11/18 04:11:47;;;;;;;6.63;3.97;;;;;;;;;;5030389;28;20501;-77
2023/11/18 04:14:13;;;;;;;6.40;3.72;;;;;;;;;;5030381;28;20060;-77
2023/11/18 04:16:38;;;;;;;7.32;4.10;;;;;;;;;;5029775;28;20111;-77
2023/11/18 04:19:03;;;;;;;9.63;4.47;;;;;;;;;;5038084;28;20117;-77
2023/11/18 04:21:29;;;;;;;6.72;4.13;;;;;;;;;;5028742;28;20025;-77
2023/11/18 04:23:54;;;;;;;8.57;4.85;;;;;;;;;;5029652;28;20040;-77
2023/11/18 04:26:20;;;;;;;7.30;4.00;;;;;;;;;;5030706;28;20026;-77
2023/11/18 04:28:45;;;;;;;7.90;4.70;;;;;;;;;;5042218;28;20541;-77
2023/11/18 04:31:11;;;;;;;7.40;4.55;;;;;;;;;;5029704;28;20041;-77
2023/11/18 04:33:36;;;;;;;7.65;4.28;;;;;;;;;;5032766;28;20033;-77
2023/11/18 04:36:01;;;;;;;6.90;4.50;;;;;;;;;;5031096;28;20033;-77
2023/11/18 04:38:26;;;;;;;8.43;4.13;;;;;;;;;;5033914;28;20017;-77
2023/11/18 04:40:57;;;;;;;7.55;4.13;;;;;;;;;;5028890;28;20049;-77
2023/11/18 04:43:23;;;;;;;15.65;4.55;;;;;;;;;;5038834;28;20029;-77
2023/11/18 04:45:48;;;;;;;7.97;4.40;;;;;;;;;;5035838;28;20473;-77
2023/11/18 04:48:14;;;;;;;6.68;3.72;;;;;;;;;;5030251;28;20103;-77
2023/11/18 04:50:39;;;;;;;9.32;4.90;;;;;;;;;;5029520;28;20071;-77
2023/11/18 04:53:08;;;;;;;8.65;4.93;;;;;;;;;;5026830;28;20067;-77
2023/11/18 04:55:33;;;;;;;8.75;5.32;;;;;;;;;;5026684;28;20021;-77
2023/11/18 04:57:58;;;;;;;8.70;4.57;;;;;;;;;;5033557;28;20537;-77
2023/11/18 05:00:24;;;;;;;7.85;4.75;;;;;;;;;;5031012;28;20049;-78
2023/11/18 05:02:50;;;;;;;7.68;4.95;;;;;;;;;;5030642;28;20029;-78
2023/11/18 05:05:15;;;;;;;7.57;4.63;;;;;;;;;;5029292;28;20115;-77
2023/11/18 05:07:42;;;;;;;7.68;4.40;;;;;;;;;;5028106;28;20026;-78
2023/11/18 05:10:08;;;;;;;7.20;4.43;;;;;;;;;;5030185;28;20037;-77
2023/11/18 05:12:33;;;;;;;7.57;4.75;;;;;;;;;;5032581;28;20100;-77
2023/11/18 05:14:58;;;;;;;7.82;4.40;;;;;;;;;;5031490;28;20662;-77
2023/11/18 05:17:23;;;;;;;6.78;4.07;;;;;;;;;;5027727;28;20040;-77
2023/11/18 05:19:49;;;;;;;7.50;4.65;;;;;;;;;;5028689;28;20060;-78
2023/11/18 05:22:14;;;;;;;6.70;3.97;;;;;;;;;;5024248;28;20026;-77
2023/11/18 05:24:39;;;;;;;6.65;3.92;;;;;;;;;;5029660;28;20531;-78
2023/11/18 05:27:05;;;;;;;7.50;4.88;;;;;;;;;;5033108;28;20046;-77
2023/11/18 05:29:30;;;;;;;9.10;4.72;;;;;;;;;;5031332;28;20013;-77
2023/11/18 05:31:55;;;;;;;6.60;4.53;;;;;;;;;;5028742;28;20672;-77
2023/11/18 05:34:21;;;;;;;9.65;5.63;;;;;;;;;;5024953;28;20088;-78
2023/11/18 05:36:46;;;;;;;6.22;4.30;;;;;;;;;;5032635;28;20037;-77
2023/11/18 05:39:12;;;;;;;8.32;4.65;;;;;;;;;;5029812;28;20025;-77
2023/11/18 05:41:39;;;;;;;7.15;3.97;;;;;;;;;;5037989;28;20157;-77
2023/11/18 05:44:06;;;;;;;7.68;4.63;;;;;;;;;;5029935;28;20109;-77
2023/11/18 05:46:32;;;;;;;7.63;5.03;;;;;;;;;;5027069;28;20041;-77
2023/11/18 05:49:01;;;;;;;8.07;5.00;;;;;;;;;;5031984;28;20025;-77
2023/11/18 05:51:28;;;;;;;7.30;4.65;;;;;;;;;;5026412;28;20061;-77
2023/11/18 05:53:55;;;;;;;8.98;4.50;;;;;;;;;;5033238;28;20513;-76
2023/11/18 05:56:24;;;;;;;7.82;4.93;;;;;;;;;;5028168;28;20113;-77
2023/11/18 05:58:49;;;;;;;8.45;5.22;;;;;;;;;;5029730;28;20022;-77
2023/11/18 06:01:16;;;;;;;8.93;5.68;;;;;;;;;;5025995;28;20939;-76
2023/11/18 06:03:42;;;;;;;8.60;4.88;;;;;;;;;;5026182;28;20037;-77
2023/11/18 06:06:11;;;;;;;7.55;4.85;;;;;;;;;;5029897;28;20076;-77
2023/11/18 06:08:40;;;;;;;9.73;6.40;;;;;;;;;;5031712;28;20095;-77
2023/11/18 06:11:12;;;;;;;9.63;6.05;;;;;;;;;;5028982;28;20090;-77
2023/11/18 06:13:42;;;;;;;9.73;6.13;;;;;;;;;;5031783;28;20041;-77
2023/11/18 06:16:07;;;;;;;9.02;5.85;;;;;;;;;;5030030;28;20517;-78
2023/11/18 06:18:33;;;;;;;8.88;5.68;;;;;;;;;;5024362;28;20108;-77
2023/11/18 06:20:58;;;;;;;9.43;6.20;;;;;;;;;;5032340;28;20037;-77
2023/11/18 06:23:23;;;;;;;10.73;6.80;;;;;;;;;;5029827;28;20159;-77
2023/11/18 06:25:48;;;;;;;9.85;6.07;;;;;;;;;;5031856;28;20052;-77
2023/11/18 06:28:15;;;;;;;9.68;6.75;;;;;;;;;;5030033;28;20025;-77
2023/11/18 06:30:41;;;;;;;10.95;6.22;;;;;;;;;;5026028;28;20033;-77
2023/11/18 06:33:06;;;;;;;10.80;6.60;;;;;;;;;;5031777;28;20034;-77
2023/11/18 06:35:34;;;;;;;9.77;6.75;;;;;;;;;;5031064;28;20038;-77
2023/11/18 06:37:59;;;;;;;10.68;6.57;;;;;;;;;;5031584;28;20382;-77
2023/11/18 06:40:26;;;;;;;11.02;6.78;;;;;;;;;;5026667;28;20044;-77
2023/11/18 06:42:54;;;;;;;11.55;6.88;;;;;;;;;;5027583;28;20033;-77
2023/11/18 06:45:21;;;;;;;10.52;6.80;;;;;;;;;;5022210;28;20079;-77
2023/11/18 06:47:49;;;;;;;12.38;6.68;;;;;;;;;;5031929;28;20070;-77
2023/11/18 06:50:15;;;;;;;15.38;7.95;;;;;;;;;;5030941;28;20036;-78
2023/11/18 06:52:44;;;;;;;13.18;7.80;;;;;;;;;;5029043;28;20033;-77
2023/11/18 06:55:11;;;;;;;12.45;7.47;;;;;;;;;;5026619;28;20052;-77
2023/11/18 06:57:36;;;;;;;12.30;8.05;;;;;;;;;;5025333;28;20041;-77
2023/11/18 07:00:08;;;;;;;12.88;7.82;;;;;;;;;;5023657;28;20030;-77
2023/11/18 07:02:33;;;;;;;14.25;8.93;;;;;;;;;;5030568;28;20028;-77
2023/11/18 07:04:58;;;;;;;13.35;8.18;;;;;;;;;;5030039;28;20146;-77
2023/11/18 07:07:23;;;;;;;12.60;8.10;;;;;;;;;;5028279;28;20494;-77
2023/11/18 07:09:49;;;;;;;14.82;8.88;;;;;;;;;;5027495;28;20119;-77
2023/11/18 07:12:14;;;;;;;13.23;8.52;;;;;;;;;;5025725;28;20038;-78
2023/11/18 07:14:40;;;;;;;14.85;9.50;;;;;;;;;;5030687;28;20063;-77
2023/11/18 07:17:05;;;;;;;13.95;9.35;;;;;;;;;;5030893;28;20129;-77
2023/11/18 07:19:32;;;;;;;14.90;9.57;;;;;;;;;;5029212;28;20061;-77
2023/11/18 07:21:59;;;;;;;14.40;8.30;;;;;;;;;;5030102;28;20060;-77
2023/11/18 07:24:24;;;;;;;13.63;8.57;;;;;;;;;;5024333;28;20025;-77
2023/11/18 07:26:50;;;;;;;13.13;8.68;;;;;;;;;;5028779;28;20391;-77
2023/11/18 07:29:16;;;;;;;15.18;9.05;;;;;;;;;;5038141;28;20030;-77
2023/11/18 07:31:43;;;;;;;15.20;9.55;;;;;;;;;;5028953;28;20061;-77
2023/11/18 07:34:08;;;;;;;16.23;9.60;;;;;;;;;;5030507;28;20033;-77
2023/11/18 07:36:33;;;;;;;17.77;11.65;;;;;;;;;;5025516;28;20530;-77
2023/11/18 07:39:01;;;;;;;17.92;11.52;;;;;;;;;;5025983;28;20656;-77
2023/11/18 07:41:27;;;;;;;17.40;11.20;;;;;;;;;;5022052;28;20398;-77
2023/11/18 07:43:55;;;;;;;17.35;11.65;;;;;;;;;;5042111;28;20034;-78
2023/11/18 07:46:24;;;;;;;17.15;9.98;;;;;;;;;;5026323;28;20056;-77
2023/11/18 07:48:51;;;;;;;16.17;10.00;;;;;;;;;;5028404;28;20525;-77
2023/11/18 07:51:17;;;;;;;15.40;10.05;;;;;;;;;;5025149;28;20037;-77
2023/11/18 07:53:42;;;;;;;16.40;11.27;;;;;;;;;;5025576;28;20048;-77
2023/11/18 07:56:10;;;;;;;17.08;10.07;;;;;;;;;;5033268;28;20034;-77
2023/11/18 07:58:37;;;;;;;17.42;10.68;;;;;;;;;;5037125;28;20098;-77
2023/11/18 08:01:03;;;;;;;15.70;9.98;;;;;;;;;;5044657;28;20447;-77
2023/11/18 08:03:31;;;;;;;13.80;9.13;;;;;;;;;;5039611;28;20033;-78
2023/11/18 08:05:56;;;;;;;15.45;9.88;;;;;;;;;;5033603;28;20036;-77
2023/11/18 08:08:21;;;;;;;15.38;10.05;;;;;;;;;;5031320;28;20037;-78
2023/11/18 08:10:48;;;;;;;13.65;9.73;;;;;;;;;;5037330;28;20096;-77
2023/11/18 08:13:13;;;;;;;14.63;10.13;;;;;;;;;;5033723;28;20497;-77
2023/11/18 08:15:39;;;;;;;14.32;9.57;;;;;;;;;;5035706;28;20036;-77
2023/11/18 08:18:04;;;;;;;16.27;9.23;;;;;;;;;;5037178;28;20460;-78
2023/11/18 08:20:30;;;;;;;13.13;9.27;;;;;;;;;;5030097;28;20030;-77
2023/11/18 08:22:56;;;;;;;16.30;8.98;;;;;;;;;;5036675;28;20033;-77
2023/11/18 08:25:21;;;;;;;14.43;8.95;;;;;;;;;;5030354;28;20029;-76
2023/11/18 08:27:47;;;;;;;16.80;10.20;;;;;;;;;;5037236;28;20092;-77
2023/11/18 08:30:12;;;;;;;14.45;9.55;;;;;;;;;;5034988;28;20033;-77
2023/11/18 08:32:38;;;;;;;15.32;9.85;;;;;;;;;;5033233;28;20026;-77
2023/11/18 08:35:05;;;;;;;17.55;9.45;;;;;;;;;;5031248;28;20076;-78
2023/11/18 08:37:31;;;;;;;13.82;9.00;;;;;;;;;;5037027;28;20075;-77
2023/11/18 08:39:56;;;;;;;13.27;7.90;;;;;;;;;;5036734;28;20049;-77
2023/11/18 08:42:22;;;;;;;13.18;8.35;;;;;;;;;;5034632;28;20478;-77
2023/11/18 08:44:48;;;;;;;14.20;9.07;;;;;;;;;;5034218;28;20036;-77
2023/11/18 08:47:13;;;;;;;13.32;8.73;;;;;;;;;;5034122;28;20075;-77
2023/11/18 08:49:40;;;;;;;14.68;8.98;;;;;;;;;;5031500;28;20490;-77
2023/11/18 08:52:09;;;;;;;15.60;10.70;;;;;;;;;;5036641;28;20040;-77
2023/11/18 08:54:37;;;;;;;15.63;9.80;;;;;;;;;;5036159;28;20121;-78
2023/11/18 08:58:15;;;;;;;15.35;9.35;;;;;;;;;;5035146;28;20099;-77
2023/11/18 09:00:07;;;;;;;14.98;10.07;;;;;;;;;;5037426;28;20040;-76
2023/11/18 09:02:37;;;;;;;14.80;9.15;;;;;;;;;;5030178;28;20394;-77
2023/11/18 09:05:06;;;;;;;16.13;9.52;;;;;;;;;;5029179;28;20040;-78
2023/11/18 09:07:34;;;;;;;13.00;8.73;;;;;;;;;;5032286;28;20177;-77
2023/11/18 09:10:01;;;;;;;16.27;10.70;;;;;;;;;;5033449;28;20069;-77
2023/11/18 09:12:27;;;;;;;13.15;8.45;;;;;;;;;;5028481;28;20103;-77
2023/11/18 09:14:53;;;;;;;13.80;8.52;;;;;;;;;;5029746;28;20060;-77
2023/11/18 09:17:22;;;;;;;13.43;9.27;;;;;;;;;;5028695;28;20061;-77
2023/11/18 09:19:47;;;;;;;11.07;7.35;;;;;;;;;;5027960;28;20112;-77
2023/11/18 09:22:14;;;;;;;17.50;10.52;;;;;;;;;;5033317;28;20490;-77
2023/11/18 09:24:39;;;;;;;12.40;8.50;;;;;;;;;;5038052;28;20040;-78
2023/11/18 09:27:06;;;;;;;13.95;9.32;;;;;;;;;;5031138;28;20037;-77
2023/11/18 09:29:33;;;;;;;13.48;9.40;;;;;;;;;;5028712;28;20034;-77
2023/11/18 09:31:59;;;;;;;12.57;8.35;;;;;;;;;;5041345;28;20040;-77
2023/11/18 09:34:28;;;;;;;13.95;8.85;;;;;;;;;;5030688;28;20124;-78
2023/11/18 09:36:54;;;;;;;12.95;8.32;;;;;;;;;;5032400;28;20049;-77
2023/11/18 09:39:37;;;;;;;12.00;8.10;;;;;;;;;;5040243;28;20034;-77
2023/11/18 09:42:03;;;;;;;15.05;8.82;;;;;;;;;;5032853;28;20454;-77
2023/11/18 09:44:28;;;;;;;13.52;8.93;;;;;;;;;;5025590;28;20046;-77
2023/11/18 09:47:03;;;;;;;10.13;7.13;;;;;;;;;;5030500;28;20471;-77
2023/11/18 09:49:38;;;;;;;10.73;7.20;;;;;;;;;;5030573;28;20040;-77
2023/11/18 09:52:04;;;;;;;9.25;6.45;;;;;;;;;;5031887;28;20033;-77
2023/11/18 09:54:36;;;;;;;8.98;6.35;;;;;;;;;;5028901;28;20391;-77
2023/11/18 09:57:26;;;;;;;10.33;7.00;;;;;;;;;;5030040;28;20120;-77
2023/11/18 10:00:10;;;;;;;11.70;6.97;;;;;;;;;;5032532;28;20498;-77
2023/11/18 10:02:37;;;;;;;8.85;6.28;;;;;;;;;;5027960;28;20033;-77
2023/11/18 10:05:12;;;;;;;10.57;6.85;;;;;;;;;;5031796;28;20021;-77
2023/11/18 10:07:38;;;;;;;12.50;6.72;;;;;;;;;;5030333;28;20045;-78
2023/11/18 10:10:03;;;;;;;13.48;8.80;;;;;;;;;;5027460;28;20029;-76
2023/11/18 10:12:29;;;;;;;11.93;7.60;;;;;;;;;;5024386;28;20600;-78
2023/11/18 10:14:56;;;;;;;9.95;6.82;;;;;;;;;;5029040;28;20049;-78
2023/11/18 10:17:26;;;;;;;12.50;6.95;;;;;;;;;;5028743;28;20063;-77
2023/11/18 10:19:59;;;;;;;10.90;7.00;;;;;;;;;;5028349;28;20038;-78
2023/11/18 10:22:25;;;;;;;10.05;6.03;;;;;;;;;;5027803;28;20138;-77
2023/11/18 10:24:54;;;;;;;9.75;6.68;;;;;;;;;;5029279;28;20029;-77
2023/11/18 10:27:20;;;;;;;10.30;6.70;;;;;;;;;;5027416;28;20038;-77
2023/11/18 10:29:47;;;;;;;15.57;9.80;;;;;;;;;;5024946;28;20410;-78
2023/11/18 10:32:19;;;;;;;17.42;9.48;;;;;;;;;;5032051;28;20112;-77
2023/11/18 10:34:45;;;;;;;18.42;9.50;;;;;;;;;;5030783;28;20037;-77
2023/11/18 10:37:10;;;;;;;9.02;6.32;;;;;;;;;;5030325;28;20033;-77
2023/11/18 10:39:36;;;;;;;18.67;9.70;;;;;;;;;;5028739;28;20026;-77
2023/11/18 10:42:02;;;;;;;18.67;9.13;;;;;;;;;;5030977;28;20506;-77
2023/11/18 10:44:29;;;;;;;12.32;7.13;;;;;;;;;;5029458;28;20029;-77
2023/11/18 10:46:54;;;;;;;22.80;11.27;;;;;;;;;;5031321;28;20037;-77
2023/11/18 10:49:22;;;;;;;10.70;7.00;;;;;;;;;;5028719;28;20071;-77
2023/11/18 10:51:50;;;;;;;15.48;7.65;;;;;;;;;;5027422;28;20029;-78
2023/11/18 10:54:17;;;;;;;12.52;6.63;;;;;;;;;;5024944;28;20064;-77
2023/11/18 10:56:49;;;;;;;9.63;6.22;;;;;;;;;;5027770;28;20033;-77
2023/11/18 10:59:16;;;;;;;;;;;;;;;;;;5032610;28;20079;-78
2023/11/18 11:01:44;;;;;;;8.35;5.40;;;;;;;;;;5029278;28;19909;-77
2023/11/18 11:04:11;;;;;;;9.45;5.28;;;;;;;;;;5026873;28;20037;-78
2023/11/18 11:06:52;;;;;;;10.00;6.20;;;;;;;;;;5030715;28;20497;-77
2023/11/18 11:09:17;;;;;;;12.10;6.65;;;;;;;;;;5026635;28;20045;-77
2023/11/18 11:11:47;;;;;;;8.45;5.10;;;;;;;;;;5027409;28;20045;-77
2023/11/18 11:14:14;;;;;;;9.60;5.50;;;;;;;;;;5031050;28;20063;-77
2023/11/18 11:16:44;;;;;;;8.27;4.82;;;;;;;;;;5040316;28;20474;-77
2023/11/18 11:19:22;;;;;;;8.75;5.53;;;;;;;;;;5037582;28;20034;-78
2023/11/18 11:21:53;;;;;;;7.45;4.68;;;;;;;;;;5033495;28;20104;-77
2023/11/18 11:24:33;;;;;;;10.23;5.55;;;;;;;;;;5022318;28;20038;-77
2023/11/18 11:27:04;;;;;;;11.35;6.10;;;;;;;;;;5028866;28;20030;-77
2023/11/18 11:29:42;;;;;;;8.40;4.95;;;;;;;;;;5028648;28;20108;-77
2023/11/18 11:32:12;;;;;;;6.90;4.38;;;;;;;;;;5026184;28;20413;-78
2023/11/18 11:34:41;;;;;;;6.57;4.10;;;;;;;;;;5027720;28;20053;-77
2023/11/18 11:37:09;;;;;;;7.97;5.10;;;;;;;;;;5029373;28;20120;-77
2023/11/18 11:39:36;;;;;;;8.52;5.38;;;;;;;;;;5022525;28;20554;-76
2023/11/18 11:42:02;;;;;;;8.30;4.55;;;;;;;;;;5030317;28;20029;-78
2023/11/18 11:44:30;;;;;;;6.38;4.28;;;;;;;;;;5028791;28;20086;-78
2023/11/18 11:46:59;;;;;;;9.25;5.70;;;;;;;;;;5020225;28;20095;-77
2023/11/18 11:49:29;;;;;;;9.23;4.90;;;;;;;;;;5018660;28;20073;-77
2023/11/18 11:52:03;;;;;;;6.03;4.10;;;;;;;;;;5024689;28;20030;-77
2023/11/18 11:54:36;;;;;;;5.35;3.83;;;;;;;;;;5028095;28;20071;-77
2023/11/18 11:57:05;;;;;;;9.40;5.00;;;;;;;;;;5031744;28;20041;-77
2023/11/18 11:59:41;;;;;;;9.30;5.03;;;;;;;;;;5020149;28;20125;-77
2023/11/18 12:02:09;;;;;;;13.27;7.28;;;;;;;;;;5027837;28;20025;-77
2023/11/18 12:04:37;;;;;;;6.75;4.30;;;;;;;;;;5021636;28;20034;-77
2023/11/18 12:07:03;;;;;;;5.40;3.30;;;;;;;;;;5030432;28;20045;-77
2023/11/18 12:09:37;;;;;;;4.95;2.88;;;;;;;;;;5029749;28;20104;-77
2023/11/18 12:12:04;;;;;;;5.38;2.97;;;;;;;;;;5037418;28;20422;-77
2023/11/18 12:14:34;;;;;;;4.95;2.80;;;;;;;;;;5024636;28;20409;-77
2023/11/18 12:17:28;;;;;;;5.63;3.15;;;;;;;;;;5026230;28;20079;-77
2023/11/18 12:19:48;;;;;;;5.10;2.97;;;;;;;;;;5023945;28;20496;-77
2023/11/18 12:22:24;;;;;;;5.10;2.70;;;;;;;;;;5027284;28;20073;-77
2023/11/18 12:24:58;;;;;;;4.97;2.72;;;;;;;;;;5029945;28;20034;-77
2023/11/18 12:27:38;;;;;;;4.85;2.80;;;;;;;;;;5028556;28;20046;-77
2023/11/18 12:30:09;;;;;;;4.45;2.83;;;;;;;;;;5025430;28;20120;-77
2023/11/18 12:32:53;;;;;;;4.75;2.67;;;;;;;;;;5021459;28;20041;-77
2023/11/18 12:35:22;;;;;;;5.22;2.53;;;;;;;;;;5027341;28;20102;-77
2023/11/18 12:38:12;;;;;;;4.78;2.50;;;;;;;;;;5029295;28;20556;-77
2023/11/18 12:40:56;;;;;;;4.47;2.75;;;;;;;;;;5009336;28;20041;-77
2023/11/18 12:43:43;;;;;;;5.28;2.60;;;;;;;;;;5028776;28;20429;-77
2023/11/18 12:46:20;;;;;;;4.10;2.42;;;;;;;;;;5026593;28;20052;-78
2023/11/18 12:48:48;;;;;;;5.38;2.70;;;;;;;;;;5026310;28;20087;-77
2023/11/18 12:51:19;;;;;;;5.72;2.80;;;;;;;;;;5034552;28;20057;-77
2023/11/18 12:53:51;;;;;;;3.78;2.05;;;;;;;;;;5032015;28;20053;-77
2023/11/18 12:56:19;;;;;;;3.75;1.90;;;;;;;;;;5029320;28;20037;-77
2023/11/18 12:58:48;;;;;;;3.35;1.83;;;;;;;;;;5028207;28;20022;-77
2023/11/18 13:01:14;;;;;;;5.43;2.45;;;;;;;;;;5037606;28;20497;-77
2023/11/18 13:03:42;;;;;;;3.80;2.00;;;;;;;;;;5030116;28;20437;-77
2023/11/18 13:06:14;;;;;;;4.47;2.10;;;;;;;;;;5032636;28;20034;-76
2023/11/18 13:08:39;;;;;;;3.92;2.20;;;;;;;;;;5029715;28;20398;-77
2023/11/18 13:11:05;;;;;;;4.03;1.90;;;;;;;;;;5030149;28;20032;-77
2023/11/18 13:13:33;;;;;;;3.72;2.00;;;;;;;;;;5026412;28;20498;-78
2023/11/18 13:15:59;;;;;;;3.25;1.73;;;;;;;;;;5026767;28;20452;-77
2023/11/18 13:18:26;;;;;;;4.63;2.25;;;;;;;;;;5033033;28;20061;-76
2023/11/18 13:20:58;;;;;;;5.30;2.55;;;;;;;;;;5033322;28;20517;-78
2023/11/18 13:23:26;;;;;;;4.15;1.95;;;;;;;;;;5030713;28;20064;-77
2023/11/18 13:25:54;;;;;;;3.95;1.88;;;;;;;;;;5032724;28;20561;-77
2023/11/18 13:28:21;;;;;;;3.55;1.92;;;;;;;;;;5025039;28;20072;-77
2023/11/18 13:30:48;;;;;;;4.28;2.30;;;;;;;;;;5032937;28;20044;-77
2023/11/18 13:33:13;;;;;;;4.47;2.20;;;;;;;;;;5030345;28;20021;-77
2023/11/18 13:35:39;;;;;;;4.15;2.17;;;;;;;;;;5030971;28;20034;-77
2023/11/18 13:38:07;;;;;;;3.70;2.20;;;;;;;;;;5032180;28;20029;-77
2023/11/18 13:40:47;;;;;;;4.07;2.22;;;;;;;;;;5025386;28;20026;-77
2023/11/18 13:43:13;;;;;;;3.40;1.95;;;;;;;;;;5026167;28;20033;-77
2023/11/18 13:45:39;;;;;;;4.47;2.40;;;;;;;;;;5030805;28;20036;-77
2023/11/18 13:48:04;;;;;;;4.57;2.38;;;;;;;;;;5032932;28;20033;-77
2023/11/18 13:50:30;;;;;;;3.55;2.17;;;;;;;;;;5028448;28;20112;-77
2023/11/18 13:52:56;;;;;;;3.45;1.98;;;;;;;;;;5032224;28;20163;-77
2023/11/18 13:55:27;;;;;;;3.50;1.95;;;;;;;;;;5025295;28;20383;-77
2023/11/18 13:57:57;;;;;;;3.53;2.20;;;;;;;;;;5029176;28;20037;-77
2023/11/18 14:00:29;;;;;;;4.18;2.45;;;;;;;;;;5036683;28;20395;-77
2023/11/18 14:02:56;;;;;;;3.80;2.15;;;;;;;;;;5028505;28;20608;-77
2023/11/18 14:05:21;;;;;;;4.95;2.45;;;;;;;;;;5030636;28;20037;-77
2023/11/18 14:07:48;;;;;;;4.50;2.13;;;;;;;;;;5029983;28;20037;-77
2023/11/18 14:10:13;;;;;;;4.22;2.30;;;;;;;;;;5027134;28;20044;-77
2023/11/18 14:12:39;;;;;;;3.78;2.10;;;;;;;;;;5027132;28;20116;-77
2023/11/18 14:15:05;;;;;;;4.78;2.60;;;;;;;;;;5032261;28;20107;-76
2023/11/18 14:17:30;;;;;;;4.07;2.33;;;;;;;;;;5030554;28;20037;-77
2023/11/18 14:19:55;;;;;;;3.90;2.42;;;;;;;;;;5032192;28;20021;-77
2023/11/18 14:22:21;;;;;;;4.85;2.47;;;;;;;;;;5028268;28;20033;-77
2023/11/18 14:24:47;;;;;;;5.80;2.75;;;;;;;;;;5024950;28;20056;-77
2023/11/18 14:27:13;;;;;;;4.40;2.60;;;;;;;;;;5031999;28;20106;-77
2023/11/18 14:29:38;;;;;;;4.65;2.35;;;;;;;;;;5031066;28;20038;-77
2023/11/18 14:32:04;;;;;;;4.50;2.42;;;;;;;;;;5031738;28;20072;-77
2023/11/18 14:34:29;;;;;;;4.90;2.08;;;;;;;;;;5024562;28;20491;-77
2023/11/18 14:36:54;;;;;;;5.57;2.42;;;;;;;;;;5029845;28;20406;-77
2023/11/18 14:39:22;;;;;;;4.97;3.05;;;;;;;;;;5031625;28;20040;-77